Flight Track Log - Related Links

Times and Time Zones

All times are in EDT time to prevent confusion due to time zone crossing. See the UAL582 flight status page for this flight to view local times or setup timezone preferences in your user account.

Time Position Orientation Groundspeed Altitude Reporting Facility
EDT Latitude Longitude Course Direction KTS MPH feet Rate Location/Type
Tue 05:25:42 PM 43.6333 -79.6333 270° West 150 173 2,300  Level Toronto Center
Tue 05:26:42 PM 43.5833 -79.6833 216° Southwest 200 230 4,100 1,650 Climbing Toronto Center
Tue 05:27:42 PM 43.5833 -79.7667 270° West 250 288 5,600 1,450 Climbing Toronto Center
Tue 05:28:42 PM 43.6000 -79.8667 283° West 250 288 7,000 1,850 Climbing Toronto Center
Tue 05:29:00 PM 43.5733 -80.2534 253° West  Level Estimated
Tue 05:29:42 PM 43.6333 -79.9500 299° West 250 288 9,300  Level Toronto Center
Tue 05:30:00 PM 43.5878 -80.3795 279° West  Level FlightAware Approximate
Tue 05:30:42 PM 43.6500 -80.0500 283° West 270 311 10,700  Level Toronto Center
Tue 05:31:00 PM 43.5638 -80.5161 270° West  Level Estimated
Tue 05:31:42 PM 43.6667 -80.1833 280° West 330 380 12,100  Level Toronto Center
Tue 05:32:42 PM 43.7000 -80.3000 292° West 360 414 14,500 2,150 Climbing Toronto Center
Tue 05:33:42 PM 43.7167 -80.4667 278° West 370 426 16,400 1,550 Climbing Toronto Center
Tue 05:34:42 PM 43.7333 -80.6000 280° West 380 437 17,600 1,350 Climbing Toronto Center
Tue 05:35:42 PM 43.7000 -80.7333 251° West 410 472 19,100 1,450 Climbing Toronto Center
Tue 05:36:42 PM 43.6500 -80.9000 248° West 420 483 20,500 1,350 Climbing Toronto Center
Tue 05:37:42 PM 43.6167 -81.0667 255° West 430 495 21,800 1,100 Climbing Toronto Center
Tue 05:38:42 PM 43.5833 -81.2167 253° West 440 506 22,700 1,200 Climbing Toronto Center
Tue 05:39:42 PM 43.5500 -81.3833 255° West 440 506 24,200 1,500 Climbing Toronto Center
Tue 05:40:42 PM 43.5333 -81.5500 262° West 440 506 25,700 1,550 Climbing Toronto Center
Tue 05:41:42 PM 43.5167 -81.7000 261° West 430 495 27,300 1,500 Climbing Toronto Center
Tue 05:42:42 PM 43.5000 -81.8667 262° West 430 495 28,700 1,500 Climbing Toronto Center
Tue 05:43:42 PM 43.4667 -82.0500 256° West 430 495 30,300 1,000 Climbing Toronto Center
Tue 05:44:42 PM 43.4500 -82.2000 261° West 430 495 30,700 739 Climbing Toronto Center
Tue 05:46:00 PM 43.4150 -82.3950 256° West 441 507 32,000 1,000 Climbing Cleveland Center
Tue 05:46:42 PM 43.3667 -82.5000 238° Southwest 440 506 32,700 824 Climbing Toronto Center
Tue 05:47:42 PM 43.3000 -82.6500 239° Southwest 440 506 33,400 650 Climbing Toronto Center
Tue 05:48:42 PM 43.2500 -82.8167 248° West 450 518 34,000 300 Climbing Toronto Center
Tue 05:49:42 PM 43.2167 -82.9667 253° West 440 506 34,000  Level Toronto Center
Tue 05:50:42 PM 43.1667 -83.1333 248° West 440 506 34,000 -100 Level Toronto Center
Tue 05:51:42 PM 43.1000 -83.2833 239° Southwest 450 518 33,800 -522 Descending Toronto Center
Tue 05:53:00 PM 43.0597 -83.4703 254° West 456 525 32,800 -783 Descending Cleveland Center
Tue 05:54:00 PM 43.0078 -83.6242 245° Southwest 456 525 32,000 -400 Descending Cleveland Center
Tue 05:55:00 PM 42.9661 -83.7781 250° West 456 525 32,000  Level Cleveland Center
Tue 05:56:00 PM 42.9447 -83.9444 260° West 442 509 32,000  Level Cleveland Center
Tue 05:57:00 PM 42.9317 -84.1081 264° West 437 503 32,000  Level Cleveland Center
Tue 05:58:00 PM 42.9139 -84.2717 262° West 437 503 32,000  Level Cleveland Center
Tue 05:58:49 PM 42.9022 -84.4022 263° West 434 499 32,000  Level Chicago Center
Tue 05:59:51 PM 42.8861 -84.5667 262° West 436 502 32,000  Level Chicago Center
Tue 06:00:54 PM 42.8683 -84.7294 262° West 435 501 32,000  Level Chicago Center
Tue 06:01:56 PM 42.8497 -84.9275 263° West 439 505 32,000  Level Chicago Center
Tue 06:02:58 PM 42.8303 -85.0922 261° West 441 507 32,000  Level Chicago Center
Tue 06:04:00 PM 42.8133 -85.2592 262° West 444 511 32,000 -387 Level Chicago Center
Tue 06:05:02 PM 42.7939 -85.4239 261° West 443 510 31,200 -823 Descending Chicago Center
Tue 06:06:04 PM 42.7711 -85.5778 259° West 419 482 30,300 -1,306 Descending Chicago Center
Tue 06:07:06 PM 42.7442 -85.7297 256° West 412 474 28,500 -1,935 Descending Chicago Center
Tue 06:08:08 PM 42.7169 -85.8764 256° West 401 461 26,300 -2,081 Descending Chicago Center
Tue 06:09:10 PM 42.6872 -86.0453 257° West 383 441 24,200 -1,694 Descending Chicago Center
Tue 06:10:12 PM 42.6625 -86.1775 256° West 363 418 22,800 -1,403 Descending Chicago Center
Tue 06:11:14 PM 42.6397 -86.3053 256° West 350 403 21,300 -1,440 Descending Chicago Center
Tue 06:12:17 PM 42.6158 -86.4328 256° West 348 400 19,800 -1,152 Descending Chicago Center
Tue 06:13:19 PM 42.5933 -86.5533 256° West 333 383 18,900 -1,016 Descending Chicago Center
Tue 06:14:21 PM 42.5722 -86.6639 255° West 309 356 17,700 -1,161 Descending Chicago Center
Tue 06:15:23 PM 42.5492 -86.7714 254° West 300 345 16,500 -1,210 Descending Chicago Center
Tue 06:16:25 PM 42.5131 -86.8994 249° West 302 348 15,200 -1,210 Descending Chicago Center
Tue 06:17:27 PM 42.4844 -87.0036 250° West 298 343 14,000 -1,355 Descending Chicago Center
Tue 06:18:29 PM 42.4578 -87.1031 250° West 288 331 12,400 -1,548 Descending Chicago Center
Tue 06:19:31 PM 42.4308 -87.2014 250° West 280 322 10,800 -1,403 Descending Chicago Center
Tue 06:20:33 PM 42.3828 -87.2714 227° Southwest 276 318 9,500 -871 Descending Chicago Center
Tue 06:21:35 PM 42.2897 -87.2531 172° South 285 328 9,000 -629 Descending Chicago Center
Tue 06:22:37 PM 42.2114 -87.2331 169° South 285 328 8,200 -871 Descending Chicago Center
Tue 06:23:39 PM 42.1364 -87.2139 169° South 278 320 7,200 -576 Descending Chicago Center
Tue 06:24:42 PM 42.0636 -87.1967 170° South 270 311 7,000 -96 Descending Chicago Center
Tue 06:25:44 PM 42.0022 -87.1825 170° South 232 267 7,000  Level Chicago Center
Tue 06:26:46 PM 41.9853 -87.2719 256° West 210 242 7,000  Level Chicago Center
Tue 06:27:48 PM 41.9839 -87.3494 269° West 210 242 7,000  Level Chicago Center
Tue 06:28:50 PM 41.9836 -87.4283 270° West 211 243 7,000 -242 Level Chicago Center
Tue 06:29:52 PM 41.9842 -87.4994 271° West 196 226 6,500 -919 Descending Chicago Center
Tue 06:30:54 PM 41.9842 -87.5631 270° West 176 203 5,100 -1,113 Descending Chicago Center
Tue 06:31:56 PM 41.9844 -87.6397 270° West 176 203 4,200 -919 Descending Chicago Center
Tue 06:32:58 PM 41.9833 -87.7025 269° West 172 198 3,200 -919 Descending Chicago Center
Tue 06:34:00 PM 41.9836 -87.7664 270° West 171 197 2,300 -774 Descending Chicago Center
Tue 06:35:02 PM 41.9844 -87.8306 271° West 172 198 1,600 -532 Descending Chicago Center
Tue 06:36:04 PM 41.9856 -87.8989 271° West 170 196 1,200 -387 Descending Chicago Center

Login

Don't have an account? Register now (free) for customized features, flight alerts, and more!